createdAt,value
2022-09-21T00:02:02.203Z,11.50
2022-09-21T00:05:06.588Z,11.49
2022-09-21T00:08:13.161Z,11.49
2022-09-21T00:11:19.083Z,11.47
2022-09-21T00:14:21.931Z,11.46
2022-09-21T00:17:24.854Z,11.44
2022-09-21T00:20:28.178Z,11.43
2022-09-21T00:23:31.056Z,11.42
2022-09-21T00:26:34.082Z,11.41
2022-09-21T00:29:37.418Z,11.41
2022-09-21T00:32:40.263Z,11.40
2022-09-21T00:35:43.070Z,11.38
2022-09-21T00:38:50.512Z,11.37
2022-09-21T00:41:53.771Z,11.37
2022-09-21T00:44:57.238Z,11.37
2022-09-21T00:48:00.336Z,11.37
2022-09-21T00:51:07.996Z,11.37
2022-09-21T00:54:22.234Z,11.37
2022-09-21T00:57:31.124Z,11.37
2022-09-21T01:00:34.149Z,11.37
2022-09-21T01:03:39.429Z,11.36
2022-09-21T01:06:42.981Z,11.36
2022-09-21T01:09:51.945Z,11.36
2022-09-21T01:13:19.293Z,11.35
2022-09-21T01:16:40.179Z,11.34
2022-09-21T01:19:58.203Z,11.33
2022-09-21T01:23:17.103Z,11.33
2022-09-21T01:26:41.194Z,11.33
2022-09-21T01:29:53.723Z,11.31
2022-09-21T01:33:07.449Z,11.30
2022-09-21T01:36:14.957Z,11.31
2022-09-21T01:39:20.852Z,11.29
2022-09-21T01:42:27.689Z,11.27
2022-09-21T01:45:34.972Z,11.27
2022-09-21T01:48:42.031Z,11.26
2022-09-21T01:51:51.039Z,11.25
2022-09-21T01:55:01.434Z,11.25
2022-09-21T01:58:17.478Z,11.24
2022-09-21T02:01:24.382Z,11.23
2022-09-21T02:04:27.580Z,11.23
2022-09-21T02:07:32.824Z,11.21
2022-09-21T02:10:43.440Z,11.19
2022-09-21T02:13:50.290Z,11.19
2022-09-21T02:17:05.220Z,11.18
2022-09-21T02:20:24.038Z,11.19
2022-09-21T02:23:37.555Z,11.18
2022-09-21T02:26:49.360Z,11.19
2022-09-21T02:30:03.702Z,11.18
2022-09-21T02:33:19.870Z,11.17
2022-09-21T02:36:30.130Z,11.13
2022-09-21T02:39:46.178Z,11.13
2022-09-21T02:42:55.987Z,11.12
2022-09-21T02:46:12.138Z,11.11
2022-09-21T02:49:22.152Z,11.10
2022-09-21T02:52:27.375Z,11.09
2022-09-21T02:55:32.810Z,11.08
2022-09-21T02:58:40.345Z,11.07
2022-09-21T03:01:43.933Z,11.04
2022-09-21T03:04:48.571Z,11.03
2022-09-21T03:07:51.413Z,11.02
2022-09-21T03:10:54.315Z,11.01
2022-09-21T03:13:57.334Z,11.01
2022-09-21T03:17:00.703Z,11.01
2022-09-21T03:20:03.669Z,11.00
2022-09-21T03:23:07.620Z,10.99
2022-09-21T03:26:10.419Z,11.00
2022-09-21T03:29:13.828Z,10.99
2022-09-21T03:32:16.694Z,10.98
2022-09-21T03:35:21.785Z,10.98
2022-09-21T03:38:25.518Z,10.96
2022-09-21T03:41:28.602Z,10.97
2022-09-21T03:44:31.485Z,10.97
2022-09-21T03:47:34.401Z,10.99
2022-09-21T03:50:37.945Z,10.97
2022-09-21T03:53:40.793Z,10.96
2022-09-21T03:56:43.668Z,10.96
2022-09-21T03:59:46.558Z,10.97
2022-09-21T04:02:49.469Z,10.96
2022-09-21T04:05:52.459Z,10.96
2022-09-21T04:08:56.274Z,10.96
2022-09-21T04:11:59.143Z,10.96
2022-09-21T04:15:02.262Z,10.96
2022-09-21T04:18:05.994Z,10.96
2022-09-21T04:21:09.319Z,10.96
2022-09-21T04:24:12.183Z,10.96
2022-09-21T04:27:15.002Z,10.96
2022-09-21T04:30:18.084Z,10.95
2022-09-21T04:33:23.976Z,10.95
2022-09-21T04:36:30.245Z,10.93
2022-09-21T04:39:36.059Z,10.92
2022-09-21T04:42:38.935Z,10.90
2022-09-21T04:45:41.788Z,10.89
2022-09-21T04:48:44.744Z,10.87
2022-09-21T04:51:47.638Z,10.86
2022-09-21T04:54:50.679Z,10.86
2022-09-21T04:57:53.586Z,10.86
2022-09-21T05:00:56.785Z,10.87
2022-09-21T05:04:01.952Z,10.88
2022-09-21T05:07:04.935Z,10.89
2022-09-21T05:10:08.911Z,10.90
2022-09-21T05:13:11.742Z,10.90
2022-09-21T05:16:16.152Z,10.89
2022-09-21T05:19:19.198Z,10.90
2022-09-21T05:22:22.397Z,10.90
2022-09-21T05:25:25.238Z,10.91
2022-09-21T05:28:28.654Z,10.91
2022-09-21T05:31:49.148Z,10.91
2022-09-21T05:35:12.394Z,10.91
2022-09-21T05:38:18.238Z,10.90
2022-09-21T05:41:21.345Z,10.90
2022-09-21T05:44:24.527Z,10.89
2022-09-21T05:47:40.796Z,10.88
2022-09-21T05:51:01.837Z,10.88
2022-09-21T05:54:15.738Z,10.88
2022-09-21T05:57:34.075Z,10.87
2022-09-21T06:00:54.806Z,10.88
2022-09-21T06:03:59.957Z,10.90
2022-09-21T06:07:03.154Z,10.91
2022-09-21T06:10:06.778Z,10.93
2022-09-21T06:13:10.567Z,10.94
2022-09-21T06:16:14.209Z,10.96
2022-09-21T06:19:17.692Z,10.97
2022-09-21T06:22:20.970Z,10.98
2022-09-21T06:25:23.911Z,11.01
2022-09-21T06:28:28.078Z,11.02
2022-09-21T06:31:31.073Z,11.03
2022-09-21T06:34:34.258Z,11.03
2022-09-21T06:37:40.218Z,11.03
2022-09-21T06:40:43.248Z,11.04
2022-09-21T06:43:46.221Z,11.03
2022-09-21T06:46:49.130Z,11.04
2022-09-21T06:49:53.585Z,11.03
2022-09-21T06:53:00.085Z,11.04
2022-09-21T06:56:08.480Z,11.04
2022-09-21T06:59:11.431Z,11.06
2022-09-21T07:02:14.405Z,11.09
2022-09-21T07:05:17.356Z,11.12
2022-09-21T07:11:43.649Z,11.15
2022-09-21T07:14:46.686Z,11.17
2022-09-21T07:17:53.179Z,11.18
2022-09-21T07:21:10.411Z,11.20
2022-09-21T07:24:15.104Z,11.20
2022-09-21T07:27:18.236Z,11.21
2022-09-21T07:30:21.187Z,11.22
2022-09-21T07:33:25.540Z,11.24
2022-09-21T07:36:28.471Z,11.24
2022-09-21T07:39:31.558Z,11.25
2022-09-21T07:42:34.821Z,11.25
2022-09-21T07:45:37.915Z,11.24
2022-09-21T07:48:41.336Z,11.25
2022-09-21T07:51:44.500Z,11.25
2022-09-21T07:54:47.490Z,11.27
2022-09-21T07:58:09.108Z,11.27
2022-09-21T08:01:13.042Z,11.28
2022-09-21T08:04:17.827Z,11.29
2022-09-21T08:07:21.026Z,11.29
2022-09-21T08:10:28.139Z,11.29
2022-09-21T08:13:33.344Z,11.30
2022-09-21T08:16:38.462Z,11.30
2022-09-21T08:19:41.787Z,11.31
2022-09-21T08:22:44.943Z,11.30
2022-09-21T08:25:48.453Z,11.31
2022-09-21T08:28:53.251Z,11.31
2022-09-21T08:31:56.803Z,11.33
2022-09-21T08:34:59.992Z,11.35
2022-09-21T08:38:03.220Z,11.38
2022-09-21T08:41:33.439Z,11.41
2022-09-21T08:44:58.775Z,11.45
2022-09-21T08:48:11.116Z,11.50
2022-09-21T08:51:23.248Z,11.53
2022-09-21T08:54:51.340Z,11.56
2022-09-21T08:57:54.282Z,11.59
2022-09-21T09:01:24.346Z,11.65
2022-09-21T09:04:35.737Z,11.70
2022-09-21T09:08:09.993Z,11.73
2022-09-21T09:11:36.890Z,11.78
2022-09-21T09:15:13.367Z,11.82
2022-09-21T09:18:33.967Z,11.86
2022-09-21T09:21:41.930Z,11.87
2022-09-21T09:24:50.938Z,11.89
2022-09-21T09:27:58.135Z,11.90
2022-09-21T09:31:24.765Z,11.92
2022-09-21T09:34:35.586Z,11.94
2022-09-21T09:37:42.348Z,11.94
2022-09-21T09:41:00.695Z,11.96
2022-09-21T09:44:36.168Z,12.01
2022-09-21T09:48:04.074Z,12.08
2022-09-21T09:51:14.128Z,12.14
2022-09-21T09:54:21.796Z,12.25
2022-09-21T09:57:35.569Z,12.39
2022-09-21T10:00:39.885Z,12.52
2022-09-21T10:03:42.833Z,12.64
2022-09-21T10:06:46.912Z,12.75
2022-09-21T10:09:50.407Z,12.80
2022-09-21T10:12:53.644Z,12.82
2022-09-21T10:16:19.184Z,12.81
2022-09-21T10:19:27.476Z,12.84
2022-09-21T10:22:30.732Z,12.85
2022-09-21T10:25:38.047Z,12.84
2022-09-21T10:29:18.228Z,12.92
2022-09-21T10:32:30.974Z,13.18
2022-09-21T10:35:52.643Z,13.50
2022-09-21T10:38:57.290Z,13.64
2022-09-21T10:42:29.317Z,13.81
2022-09-21T10:45:37.293Z,13.92
2022-09-21T10:48:40.249Z,13.94
2022-09-21T10:51:47.169Z,13.96
2022-09-21T10:54:56.067Z,13.90
2022-09-21T10:58:00.013Z,13.83
2022-09-21T11:01:21.169Z,13.78
2022-09-21T11:04:31.389Z,13.74
2022-09-21T11:07:39.940Z,13.76
2022-09-21T11:10:42.811Z,13.79
2022-09-21T11:14:06.287Z,13.79
2022-09-21T11:17:27.861Z,13.77
2022-09-21T11:20:42.221Z,13.72
2022-09-21T11:24:04.101Z,13.68
2022-09-21T11:27:32.353Z,13.65
2022-09-21T11:31:05.544Z,13.61
2022-09-21T11:34:22.481Z,13.53
2022-09-21T11:37:44.368Z,13.45
2022-09-21T11:41:06.609Z,13.37
2022-09-21T11:44:19.342Z,13.32
2022-09-21T11:47:37.117Z,13.27
2022-09-21T11:51:01.047Z,13.23
2022-09-21T11:54:20.659Z,13.25
2022-09-21T11:57:59.338Z,13.48
2022-09-21T12:01:24.815Z,13.55
2022-09-21T12:04:47.372Z,13.61
2022-09-21T12:08:29.196Z,13.62
2022-09-21T12:11:43.947Z,13.61
2022-09-21T12:15:22.421Z,13.60
2022-09-21T12:18:46.045Z,13.57
2022-09-21T12:21:56.228Z,13.60
2022-09-21T12:25:13.279Z,13.84
2022-09-21T12:28:31.403Z,14.13
2022-09-21T12:31:44.925Z,14.31
2022-09-21T12:34:57.589Z,14.31
2022-09-21T12:38:09.511Z,14.27
2022-09-21T12:41:34.403Z,14.20
2022-09-21T12:44:52.971Z,14.13
2022-09-21T12:48:06.407Z,14.06
2022-09-21T12:51:23.028Z,13.99
2022-09-21T12:55:01.591Z,13.94
2022-09-21T12:58:22.203Z,13.90
2022-09-21T13:01:56.961Z,13.87
2022-09-21T13:05:01.431Z,13.87
2022-09-21T13:08:28.932Z,13.86
2022-09-21T13:11:34.518Z,13.85
2022-09-21T13:14:45.676Z,13.81
2022-09-21T13:18:02.870Z,13.77
2022-09-21T13:21:20.542Z,13.72
2022-09-21T13:24:29.817Z,13.68
2022-09-21T13:28:01.028Z,13.65
2022-09-21T13:31:37.176Z,13.64
2022-09-21T13:34:44.100Z,13.63
2022-09-21T13:38:25.759Z,13.63
2022-09-21T13:41:51.872Z,13.64
2022-09-21T13:44:52.888Z,13.67
2022-09-21T13:48:00.177Z,13.69
2022-09-21T13:51:09.471Z,13.74
2022-09-21T13:54:14.151Z,13.83
2022-09-21T13:57:40.771Z,13.92
2022-09-21T14:00:53.278Z,14.00
2022-09-21T14:04:01.022Z,14.04
2022-09-21T14:07:07.411Z,14.08
2022-09-21T14:10:20.865Z,14.09
2022-09-21T14:13:35.111Z,14.08
2022-09-21T14:16:47.629Z,14.07
2022-09-21T14:19:56.424Z,14.07
2022-09-21T14:23:14.612Z,14.09
2022-09-21T14:26:42.378Z,14.08
2022-09-21T14:29:53.221Z,14.05
2022-09-21T14:33:12.039Z,14.03
2022-09-21T14:36:21.732Z,14.02
2022-09-21T14:39:37.887Z,14.00
2022-09-21T14:42:41.252Z,14.01
2022-09-21T14:45:47.282Z,14.01
2022-09-21T14:48:59.469Z,14.04
2022-09-21T14:52:15.238Z,14.04
2022-09-21T14:55:30.653Z,14.05
2022-09-21T14:58:52.230Z,14.06
2022-09-21T15:02:10.970Z,14.07
2022-09-21T15:05:24.571Z,14.05
2022-09-21T15:09:25.337Z,14.03
2022-09-21T15:12:46.592Z,13.97
2022-09-21T15:16:08.148Z,13.87
2022-09-21T15:19:19.811Z,13.75
2022-09-21T15:22:22.983Z,13.62
2022-09-21T15:25:31.060Z,13.52
2022-09-21T15:29:08.290Z,13.45
2022-09-21T15:32:25.363Z,13.34
2022-09-21T15:35:30.887Z,13.25
2022-09-21T15:38:36.227Z,13.16
2022-09-21T15:41:42.511Z,13.08
2022-09-21T15:44:48.710Z,13.00
2022-09-21T15:47:52.351Z,12.93
2022-09-21T15:51:01.367Z,12.88
2022-09-21T15:54:15.604Z,12.83
2022-09-21T15:57:28.571Z,12.81
2022-09-21T16:00:34.579Z,12.79
2022-09-21T16:03:41.161Z,12.77
2022-09-21T16:06:49.472Z,12.74
2022-09-21T16:09:52.631Z,12.73
2022-09-21T16:13:36.479Z,12.71
2022-09-21T16:17:20.449Z,12.70
2022-09-21T16:20:24.739Z,12.69
2022-09-21T16:23:30.288Z,12.69
2022-09-21T16:26:36.821Z,12.67
2022-09-21T16:29:45.702Z,12.66
2022-09-21T16:32:48.784Z,12.64
2022-09-21T16:35:51.843Z,12.61
2022-09-21T16:38:54.881Z,12.59
2022-09-21T16:42:03.112Z,12.57
2022-09-21T16:45:16.788Z,12.55
2022-09-21T16:48:19.762Z,12.51
2022-09-21T16:51:25.190Z,12.47
2022-09-21T16:54:29.102Z,12.44
2022-09-21T16:57:33.421Z,12.40
2022-09-21T17:00:40.801Z,12.36
2022-09-21T17:03:46.427Z,12.33
2022-09-21T17:06:52.789Z,12.29
2022-09-21T17:09:55.628Z,12.25
2022-09-21T17:12:59.261Z,12.22
2022-09-21T17:16:02.677Z,12.18
2022-09-21T17:19:05.640Z,12.15
2022-09-21T17:22:17.805Z,12.11
2022-09-21T17:25:20.655Z,12.08
2022-09-21T17:28:26.316Z,12.04
2022-09-21T17:31:29.662Z,12.01
2022-09-21T17:34:35.719Z,11.99
2022-09-21T17:37:39.105Z,11.97
2022-09-21T17:40:43.108Z,11.93
2022-09-21T17:44:12.164Z,11.91
2022-09-21T17:47:29.574Z,11.89
2022-09-21T17:50:32.784Z,11.88
2022-09-21T17:53:38.788Z,11.88
2022-09-21T17:56:58.260Z,11.88
2022-09-21T18:00:12.126Z,11.89
2022-09-21T18:03:24.694Z,11.90
2022-09-21T18:06:29.078Z,11.90
2022-09-21T18:09:32.292Z,11.91
2022-09-21T18:12:58.047Z,11.90
2022-09-21T18:16:14.391Z,11.92
2022-09-21T18:19:32.143Z,11.92
2022-09-21T18:22:41.689Z,11.93
2022-09-21T18:25:49.435Z,11.93
2022-09-21T18:29:17.227Z,11.94
2022-09-21T18:32:51.942Z,11.94
2022-09-21T18:36:24.691Z,11.94
2022-09-21T18:39:30.473Z,11.94
2022-09-21T18:42:56.085Z,11.93
2022-09-21T18:46:05.986Z,11.90
2022-09-21T18:49:50.504Z,11.88
2022-09-21T18:52:58.121Z,11.85
2022-09-21T18:56:01.651Z,11.83
2022-09-21T18:59:09.756Z,11.81
2022-09-21T19:02:20.389Z,11.81
2022-09-21T19:05:24.119Z,11.80
2022-09-21T19:08:55.560Z,11.81
2022-09-21T19:12:32.044Z,11.81
2022-09-21T19:16:11.648Z,11.81
2022-09-21T19:19:31.161Z,11.81
2022-09-21T19:22:37.575Z,11.80
2022-09-21T19:25:49.898Z,11.80
2022-09-21T19:29:03.452Z,11.81
2022-09-21T19:32:16.322Z,11.80
2022-09-21T19:35:33.730Z,11.79
2022-09-21T19:38:38.658Z,11.79
2022-09-21T19:42:08.735Z,11.80
2022-09-21T19:45:25.906Z,11.80
2022-09-21T19:48:29.219Z,11.78
2022-09-21T19:51:51.252Z,11.77
2022-09-21T19:55:12.925Z,11.77
2022-09-21T19:58:34.362Z,11.77
2022-09-21T20:01:42.671Z,11.76
2022-09-21T20:05:07.889Z,11.76
2022-09-21T20:08:37.502Z,11.76
2022-09-21T20:11:51.052Z,11.75
2022-09-21T20:15:09.971Z,11.75
2022-09-21T20:18:24.246Z,11.74
2022-09-21T20:21:39.693Z,11.74
2022-09-21T20:24:49.429Z,11.74
2022-09-21T20:27:55.973Z,11.74
2022-09-21T20:30:58.938Z,11.74
2022-09-21T20:34:02.949Z,11.74
2022-09-21T20:37:11.958Z,11.73
2022-09-21T20:40:15.573Z,11.73
2022-09-21T20:43:19.623Z,11.74
2022-09-21T20:46:22.584Z,11.73
2022-09-21T20:49:25.569Z,11.73
2022-09-21T20:52:28.496Z,11.72
2022-09-21T20:55:31.306Z,11.72
2022-09-21T20:58:35.766Z,11.71
2022-09-21T21:01:38.625Z,11.71
2022-09-21T21:04:41.543Z,11.70
2022-09-21T21:07:44.977Z,11.68
2022-09-21T21:10:47.814Z,11.68
2022-09-21T21:13:50.731Z,11.67
2022-09-21T21:16:53.600Z,11.66
2022-09-21T21:19:57.128Z,11.65
2022-09-21T21:23:03.421Z,11.66
2022-09-21T21:26:08.876Z,11.65
2022-09-21T21:29:11.921Z,11.63
2022-09-21T21:32:15.051Z,11.64
2022-09-21T21:35:18.527Z,11.62
2022-09-21T21:38:21.433Z,11.61
2022-09-21T21:41:24.415Z,11.61
2022-09-21T21:44:27.641Z,11.60
2022-09-21T21:47:45.869Z,11.59
2022-09-21T21:50:48.969Z,11.57
2022-09-21T21:53:51.846Z,11.57
2022-09-21T21:56:54.969Z,11.55
2022-09-21T21:59:57.943Z,11.54
2022-09-21T22:03:02.567Z,11.53
2022-09-21T22:06:06.981Z,11.53
2022-09-21T22:09:11.017Z,11.52
2022-09-21T22:12:14.144Z,11.51
2022-09-21T22:15:18.899Z,11.49
2022-09-21T22:18:21.758Z,11.47
2022-09-21T22:21:28.475Z,11.42
2022-09-21T22:24:31.394Z,11.40
2022-09-21T22:27:34.252Z,11.36
2022-09-21T22:30:37.150Z,11.34
2022-09-21T22:33:40.173Z,11.31
2022-09-21T22:36:43.909Z,11.28
2022-09-21T22:39:47.034Z,11.24
2022-09-21T22:42:49.876Z,11.20
2022-09-21T22:45:54.518Z,11.17
2022-09-21T22:48:58.150Z,11.13
2022-09-21T22:52:01.376Z,11.09
2022-09-21T22:55:04.600Z,11.06
2022-09-21T22:58:07.511Z,11.02
2022-09-21T23:01:13.446Z,10.99
2022-09-21T23:04:17.265Z,10.95
2022-09-21T23:07:20.507Z,10.92
2022-09-21T23:10:26.252Z,10.89
2022-09-21T23:13:29.229Z,10.87
2022-09-21T23:16:32.619Z,10.85
2022-09-21T23:19:35.549Z,10.82
2022-09-21T23:22:39.614Z,10.81
2022-09-21T23:25:42.478Z,10.78
2022-09-21T23:28:51.058Z,10.77
2022-09-21T23:31:53.973Z,10.75
2022-09-21T23:34:56.958Z,10.76
2022-09-21T23:37:59.879Z,10.77
2022-09-21T23:41:08.850Z,10.78
2022-09-21T23:44:21.527Z,10.79
2022-09-21T23:47:47.354Z,10.79
2022-09-21T23:51:08.791Z,10.80
2022-09-21T23:54:11.877Z,10.80
2022-09-21T23:57:14.816Z,10.81
